Lemsid, Western Sahara
Current Conditions -  °F | °C
As of 11:00 PM on Thursday 27 Nov 2014 (Local Time) from GCFV Reporting Station
Few Clouds Few Clouds  
Wind Chill: 68°   Ceiling: Unl
Heat Index: 68°   Visibility: 6mi
Dew Point: 59°   Wind: 23mph
Humidity: 73%   Direction: 270°W
Pressure: 29.74"   Gusts: NA
Location:  26.55°N, 13.85°W
Report Text: GCFV 272300Z 27020KT 9999 FEW024 20/15 Q1007
Loading
Personal Weather Stations






























Interactive Weather Map New forecast layout! Learn more

10-Day Weather Forecast

Advertisements
Track Severe Weather on mobile